createdAt,value
2022-08-18T00:03:01.026Z,15.73
2022-08-18T00:08:05.975Z,14.75
2022-08-18T00:13:07.839Z,14.38
2022-08-18T00:18:09.756Z,12.77
2022-08-18T00:23:13.503Z,12.98
2022-08-18T00:28:15.467Z,14.23
2022-08-18T00:33:22.631Z,19.92
2022-08-18T00:38:26.916Z,21.95
2022-08-18T00:43:55.573Z,20.95
2022-08-18T00:49:00.137Z,19.85
2022-08-18T00:54:07.721Z,19.27
2022-08-18T00:59:34.168Z,19.83
2022-08-18T01:04:48.009Z,18.67
2022-08-18T01:09:53.939Z,18.65
2022-08-18T01:14:59.020Z,20.48
2022-08-18T01:20:23.123Z,18.83
2022-08-18T01:25:45.948Z,17.67
2022-08-18T01:30:56.106Z,21.50
2022-08-18T01:36:24.662Z,24.65
2022-08-18T01:41:30.157Z,20.65
2022-08-18T01:46:34.306Z,30.10
2022-08-18T01:51:42.564Z,27.42
2022-08-18T01:56:48.394Z,25.92
2022-08-18T02:01:56.269Z,24.75
2022-08-18T02:07:02.612Z,23.83
2022-08-18T02:12:11.617Z,23.63
2022-08-18T02:17:16.806Z,22.42
2022-08-18T02:22:20.099Z,20.83
2022-08-18T02:27:21.931Z,21.52
2022-08-18T02:32:29.406Z,21.08
2022-08-18T02:37:31.367Z,21.05
2022-08-18T02:42:35.551Z,20.25
2022-08-18T02:47:44.387Z,24.63
2022-08-18T02:52:49.017Z,24.88
2022-08-18T02:57:51.088Z,19.38
2022-08-18T03:02:53.607Z,20.38
2022-08-18T03:07:59.786Z,18.10
2022-08-18T03:13:09.453Z,16.73
2022-08-18T03:18:16.516Z,23.52
2022-08-18T03:23:21.292Z,27.20
2022-08-18T03:28:35.565Z,25.17
2022-08-18T03:33:42.101Z,26.55
2022-08-18T03:38:45.322Z,18.92
2022-08-18T03:43:52.849Z,24.13
2022-08-18T03:48:57.170Z,23.75
2022-08-18T03:54:01.442Z,24.15
2022-08-18T03:59:13.944Z,23.55
2022-08-18T04:04:22.147Z,27.42
2022-08-18T04:09:27.682Z,26.88
2022-08-18T04:14:32.602Z,30.52
2022-08-18T04:19:37.932Z,27.85
2022-08-18T04:24:45.377Z,30.10
2022-08-18T04:29:50.818Z,28.05
2022-08-18T04:34:52.549Z,30.42
2022-08-18T04:39:56.716Z,34.92
2022-08-18T04:44:59.412Z,29.30
2022-08-18T04:50:03.351Z,31.45
2022-08-18T04:55:10.932Z,35.40
2022-08-18T05:00:15.466Z,31.75
2022-08-18T05:05:17.238Z,32.30
2022-08-18T05:10:19.164Z,33.55
2022-08-18T05:15:23.953Z,32.67
2022-08-18T05:20:25.693Z,33.08
2022-08-18T05:25:29.434Z,34.88
2022-08-18T05:30:33.529Z,34.80
2022-08-18T05:35:41.587Z,40.55
2022-08-18T05:40:46.129Z,42.08
2022-08-18T05:45:54.548Z,39.15
2022-08-18T05:50:58.223Z,40.15
2022-08-18T05:56:21.554Z,41.55
2022-08-18T06:01:32.187Z,40.97
2022-08-18T06:06:38.781Z,41.80
2022-08-18T06:11:43.379Z,41.42
2022-08-18T06:16:59.740Z,39.88
2022-08-18T06:22:16.796Z,33.60
2022-08-18T06:27:41.022Z,32.35
2022-08-18T06:33:07.861Z,32.03
2022-08-18T06:38:37.069Z,33.75
2022-08-18T06:43:45.344Z,26.73
2022-08-18T06:48:54.551Z,26.88
2022-08-18T06:54:03.919Z,29.02
2022-08-18T06:59:29.808Z,26.52
2022-08-18T07:04:35.284Z,23.38
2022-08-18T07:09:37.036Z,21.50
2022-08-18T07:14:51.121Z,19.45
2022-08-18T07:20:05.431Z,17.42
2022-08-18T07:25:07.596Z,16.88
2022-08-18T07:30:15.986Z,14.23
2022-08-18T07:35:20.609Z,13.98
2022-08-18T07:40:51.618Z,13.30
2022-08-18T07:46:02.646Z,12.45
2022-08-18T07:51:44.114Z,12.75
2022-08-18T07:56:59.957Z,10.63
2022-08-18T08:02:37.917Z,12.52
2022-08-18T08:07:48.936Z,11.27
2022-08-18T08:13:43.717Z,10.52
2022-08-18T08:19:14.358Z,10.57
2022-08-18T08:24:26.437Z,10.52
2022-08-18T08:30:11.162Z,10.68
2022-08-18T08:35:50.159Z,12.40
2022-08-18T08:41:13.079Z,14.63
2022-08-18T08:46:20.303Z,15.07
2022-08-18T08:51:46.695Z,13.20
2022-08-18T08:56:51.327Z,10.82
2022-08-18T09:02:47.116Z,10.43
2022-08-18T09:07:55.186Z,11.90
2022-08-18T09:13:29.161Z,11.10
2022-08-18T09:18:46.050Z,9.93
2022-08-18T09:23:52.208Z,10.52
2022-08-18T09:29:12.956Z,11.25
2022-08-18T09:34:32.554Z,10.27
2022-08-18T09:40:11.257Z,9.68
2022-08-18T09:45:33.341Z,10.40
2022-08-18T09:50:39.994Z,10.57
2022-08-18T09:56:00.547Z,10.45
2022-08-18T10:01:38.200Z,10.05
2022-08-18T10:06:49.093Z,10.07
2022-08-18T10:11:58.280Z,10.57
2022-08-18T10:17:42.123Z,8.07
2022-08-18T10:22:50.691Z,8.05
2022-08-18T10:27:55.474Z,7.47
2022-08-18T10:33:16.874Z,7.65
2022-08-18T10:38:26.237Z,8.82
2022-08-18T10:43:45.655Z,9.18
2022-08-18T10:49:13.415Z,8.15
2022-08-18T10:54:25.178Z,8.52
2022-08-18T10:59:50.567Z,9.00
2022-08-18T11:10:57.864Z,8.10
2022-08-18T11:16:13.693Z,8.43
2022-08-18T11:21:42.615Z,9.45
2022-08-18T11:32:18.201Z,7.55
2022-08-18T11:37:24.077Z,8.50
2022-08-18T11:42:31.637Z,7.88
2022-08-18T11:47:39.939Z,8.75
2022-08-18T11:52:53.772Z,9.18
2022-08-18T11:58:01.170Z,8.55
2022-08-18T12:03:08.606Z,8.15
2022-08-18T12:08:50.606Z,8.63
2022-08-18T12:13:44.831Z,8.27
2022-08-18T12:18:47.755Z,9.05
2022-08-18T12:23:52.897Z,8.70
2022-08-18T12:29:01.423Z,8.43
2022-08-18T12:34:06.592Z,10.32
2022-08-18T12:39:15.387Z,9.80
2022-08-18T12:44:18.620Z,8.95
2022-08-18T12:49:28.211Z,7.97
2022-08-18T12:54:32.887Z,8.77
2022-08-18T12:59:37.467Z,7.72
2022-08-18T13:04:41.765Z,8.07
2022-08-18T13:09:53.582Z,7.80
2022-08-18T13:14:56.333Z,8.48
2022-08-18T13:20:09.826Z,8.27
2022-08-18T13:25:32.244Z,8.00
2022-08-18T13:30:46.126Z,6.68
2022-08-18T13:35:54.006Z,5.28
2022-08-18T13:40:59.187Z,5.15
2022-08-18T13:46:01.601Z,5.07
2022-08-18T13:51:05.957Z,4.93
2022-08-18T13:56:16.309Z,4.80
2022-08-18T14:01:44.297Z,4.60
2022-08-18T14:06:46.876Z,4.40
2022-08-18T14:11:59.489Z,5.15
2022-08-18T14:17:04.402Z,4.20
2022-08-18T14:28:56.180Z,3.90
2022-08-18T14:34:03.963Z,3.60
2022-08-18T14:39:08.581Z,3.13
2022-08-18T14:44:15.338Z,3.40
2022-08-18T14:49:28.101Z,2.45
2022-08-18T14:54:31.732Z,2.90
2022-08-18T14:59:41.462Z,2.25
2022-08-18T15:04:52.953Z,2.65
2022-08-18T15:10:14.940Z,2.53
2022-08-18T15:15:18.832Z,3.10
2022-08-18T15:20:29.433Z,3.15
2022-08-18T15:25:42.741Z,2.70
2022-08-18T15:30:47.051Z,2.85
2022-08-18T15:35:54.162Z,2.50
2022-08-18T15:41:05.890Z,2.72
2022-08-18T15:46:10.707Z,2.55
2022-08-18T15:51:17.045Z,2.20
2022-08-18T15:56:21.985Z,2.50
2022-08-18T16:01:32.997Z,2.40
2022-08-18T16:06:40.972Z,2.20
2022-08-18T16:11:45.685Z,2.40
2022-08-18T16:16:51.337Z,2.60
2022-08-18T16:21:58.206Z,2.35
2022-08-18T16:27:02.268Z,2.65
2022-08-18T16:32:16.287Z,2.50
2022-08-18T16:37:20.661Z,2.10
2022-08-18T16:42:25.120Z,2.78
2022-08-18T16:47:34.778Z,2.58
2022-08-18T16:52:39.375Z,2.25
2022-08-18T16:58:01.354Z,2.60
2022-08-18T17:03:23.771Z,2.92
2022-08-18T17:08:28.635Z,3.08
2022-08-18T17:13:33.434Z,2.85
2022-08-18T17:18:36.161Z,2.70
2022-08-18T17:23:39.179Z,3.00
2022-08-18T17:28:50.490Z,2.78
2022-08-18T17:34:06.407Z,3.20
2022-08-18T17:39:08.821Z,2.53
2022-08-18T17:44:10.677Z,2.53
2022-08-18T17:49:18.291Z,3.10
2022-08-18T17:54:29.957Z,3.60
2022-08-18T17:59:45.807Z,3.58
2022-08-18T18:04:56.493Z,2.90
2022-08-18T18:10:05.182Z,3.00
2022-08-18T18:15:17.008Z,3.50
2022-08-18T18:20:41.866Z,3.38
2022-08-18T18:25:44.085Z,3.85
2022-08-18T18:30:45.940Z,2.97
2022-08-18T18:35:54.898Z,4.38
2022-08-18T18:41:20.991Z,4.65
2022-08-18T18:46:36.077Z,3.67
2022-08-18T18:51:47.522Z,4.03
2022-08-18T18:56:57.865Z,4.05
2022-08-18T19:02:33.924Z,4.05
2022-08-18T19:08:01.070Z,6.43
2022-08-18T19:13:08.063Z,4.72
2022-08-18T19:18:32.476Z,4.18
2022-08-18T19:23:49.071Z,4.90
2022-08-18T19:29:14.816Z,4.68
2022-08-18T19:34:29.967Z,5.82
2022-08-18T19:39:38.319Z,5.75
2022-08-18T19:45:15.966Z,5.38
2022-08-18T19:50:21.729Z,6.57
2022-08-18T19:56:01.630Z,5.43
2022-08-18T20:01:21.113Z,6.15
2022-08-18T20:06:56.021Z,7.40
2022-08-18T20:12:11.018Z,5.65
2022-08-18T20:17:17.527Z,6.68
2022-08-18T20:22:24.377Z,7.50
2022-08-18T20:27:30.233Z,6.03
2022-08-18T20:32:37.405Z,6.82
2022-08-18T20:37:42.501Z,7.00
2022-08-18T20:42:56.430Z,9.20
2022-08-18T20:48:44.472Z,15.00
2022-08-18T20:54:25.511Z,11.05
2022-08-18T20:59:33.911Z,11.00
2022-08-18T21:04:47.403Z,9.95
2022-08-18T21:09:57.039Z,10.52
2022-08-18T21:15:10.766Z,9.50
2022-08-18T21:20:16.426Z,8.85
2022-08-18T21:25:20.559Z,7.82
2022-08-18T21:30:26.861Z,8.38
2022-08-18T21:35:32.768Z,8.38
2022-08-18T21:40:34.508Z,8.13
2022-08-18T21:46:05.759Z,7.47
2022-08-18T21:51:11.255Z,8.32
2022-08-18T21:56:28.097Z,7.78
2022-08-18T22:01:29.893Z,8.30
2022-08-18T22:06:40.563Z,7.38
2022-08-18T22:12:06.416Z,7.35
2022-08-18T22:17:25.485Z,7.32
2022-08-18T22:22:49.283Z,8.10
2022-08-18T22:27:51.304Z,7.78
2022-08-18T22:32:57.597Z,10.45
2022-08-18T22:38:03.010Z,8.32
2022-08-18T22:43:07.277Z,8.25
2022-08-18T22:48:09.621Z,7.88
2022-08-18T22:53:12.453Z,8.32
2022-08-18T22:58:16.906Z,7.28
2022-08-18T23:03:27.110Z,8.75
2022-08-18T23:08:54.162Z,9.65
2022-08-18T23:13:56.347Z,8.25
2022-08-18T23:19:04.855Z,9.98
2022-08-18T23:24:10.378Z,9.95
2022-08-18T23:29:21.409Z,11.13
2022-08-18T23:34:27.812Z,10.57
2022-08-18T23:39:33.652Z,11.23
2022-08-18T23:44:40.310Z,10.50
2022-08-18T23:49:44.119Z,9.98
2022-08-18T23:54:48.283Z,9.93
2022-08-18T23:59:50.316Z,10.60
